Time;durP1;ratioP1;P1;durP2;ratioP2;P2;SDS_P1;SDS_P2;PMS_P1;PMS_P2;Temp;Humidity;BMP_temperature;BMP_pressure;BME280_temperature;BME280_humidity;BME280_pressure;Samples;Min_cycle;Max_cycle;Signal;HPM_P1;HPM_P2
2022/01/15 00:00:29;;;;;;;5.07;2.53;;;4.40;89.90;;;;;;5062871;28;20021;-72
2022/01/15 00:02:55;;;;;;;4.53;2.22;;;4.20;90.30;;;;;;5064748;28;20493;-72
2022/01/15 00:05:22;;;;;;;7.07;2.63;;;4.30;90.30;;;;;;5065691;28;20032;-72
2022/01/15 00:07:48;;;;;;;5.53;2.70;;;4.40;89.90;;;;;;5070391;28;20031;-72
2022/01/15 00:10:21;;;;;;;6.85;2.95;;;4.40;89.40;;;;;;5070713;28;20037;-72
2022/01/15 00:12:47;;;;;;;7.68;2.53;;;4.50;89.70;;;;;;5070108;28;20036;-73
2022/01/15 00:15:26;;;;;;;6.93;2.92;;;4.50;89.40;;;;;;5070078;28;20028;-73
2022/01/15 00:18:01;;;;;;;6.88;2.97;;;4.30;90.00;;;;;;5070091;28;20044;-72
2022/01/15 00:20:27;;;;;;;;;;;4.40;90.00;;;;;;5070902;28;20111;-72
2022/01/15 00:22:55;;;;;;;5.95;2.00;;;4.40;90.30;;;;;;5070053;28;19912;-72
2022/01/15 00:25:22;;;;;;;7.45;3.10;;;4.30;90.40;;;;;;5069892;28;20048;-72
2022/01/15 00:27:48;;;;;;;6.68;2.92;;;4.30;90.20;;;;;;5088984;28;20055;-72
2022/01/15 00:30:15;;;;;;;8.13;3.25;;;4.20;90.20;;;;;;5090592;28;20048;-72
2022/01/15 00:32:41;;;;;;;8.35;3.70;;;4.20;89.90;;;;;;5090043;28;20103;-73
2022/01/15 00:35:09;;;;;;;7.75;3.03;;;4.00;90.20;;;;;;5090125;28;20118;-72
2022/01/15 00:37:35;;;;;;;7.88;3.60;;;3.90;90.30;;;;;;5089964;28;20110;-72
2022/01/15 00:40:03;;;;;;;5.72;3.33;;;4.00;90.50;;;;;;5090253;28;20032;-72
2022/01/15 00:42:30;;;;;;;8.07;3.65;;;4.00;90.50;;;;;;5090936;28;20077;-72
2022/01/15 00:44:57;;;;;;;6.97;3.10;;;4.00;90.50;;;;;;5089411;28;20665;-72
2022/01/15 00:47:25;;;;;;;6.75;3.13;;;4.10;90.40;;;;;;5090261;28;20127;-72
2022/01/15 00:49:52;;;;;;;4.85;2.40;;;4.00;90.70;;;;;;5090558;28;20063;-72
2022/01/15 00:52:18;;;;;;;3.42;1.50;;;4.00;90.90;;;;;;5090165;28;20032;-72
2022/01/15 00:54:44;;;;;;;4.22;1.85;;;3.80;91.90;;;;;;5089395;28;20085;-72
2022/01/15 00:57:09;;;;;;;4.80;2.30;;;4.20;91.50;;;;;;5091004;28;20032;-72
2022/01/15 00:59:35;;;;;;;5.10;2.03;;;4.70;90.60;;;;;;5090209;28;20032;-72
2022/01/15 01:02:01;;;;;;;4.20;1.77;;;4.70;90.60;;;;;;5090655;28;20028;-72
2022/01/15 01:04:26;;;;;;;5.15;1.48;;;4.50;90.70;;;;;;5094257;28;20479;-72
2022/01/15 01:06:52;;;;;;;6.38;2.45;;;4.20;90.80;;;;;;5093384;28;20028;-72
2022/01/15 01:09:18;;;;;;;6.65;2.80;;;3.90;90.90;;;;;;5093639;28;20054;-72
2022/01/15 01:11:51;;;;;;;6.63;2.63;;;3.80;91.30;;;;;;5093874;28;20032;-73
2022/01/15 01:25:14;;;;;;;4.28;1.75;;;4.70;90.90;;;;;;5093035;28;20782;-72
2022/01/15 01:27:49;;;;;;;4.20;1.85;;;4.90;90.60;;;;;;5075688;28;20040;-72
2022/01/15 01:30:22;;;;;;;6.65;2.75;;;4.70;90.50;;;;;;5092131;28;20024;-72
2022/01/15 01:33:05;;;;;;;5.05;2.03;;;4.20;90.70;;;;;;5094557;28;20027;-72
2022/01/15 01:35:39;;;;;;;5.20;2.35;;;3.90;91.90;;;;;;5093448;28;20024;-72
2022/01/15 01:38:52;;;;;;;4.93;2.45;;;3.90;91.90;;;;;;5093601;28;20381;-72
2022/01/15 01:40:57;;;;;;;6.47;2.63;;;3.80;92.00;;;;;;5083657;28;20055;-72
2022/01/15 01:45:59;;;;;;;5.10;2.65;;;3.90;91.10;;;;;;5093071;28;20478;-72
2022/01/15 01:48:24;;;;;;;5.88;2.65;;;3.80;91.30;;;;;;5092516;28;20036;-72
2022/01/15 01:50:50;;;;;;;6.07;2.60;;;3.90;91.40;;;;;;5092502;28;20024;-72
2022/01/15 01:53:16;;;;;;;7.75;2.03;;;4.40;91.10;;;;;;5092216;28;20104;-72
2022/01/15 01:55:42;;;;;;;3.63;1.60;;;4.20;91.10;;;;;;5093190;28;20028;-72
2022/01/15 01:58:07;;;;;;;5.95;1.67;;;4.10;91.40;;;;;;5092141;28;20032;-72
2022/01/15 02:00:33;;;;;;;3.70;2.03;;;4.00;91.80;;;;;;5092311;28;20032;-72
2022/01/15 02:03:00;;;;;;;5.13;2.40;;;4.20;91.70;;;;;;5092724;28;20025;-72
2022/01/15 02:05:26;;;;;;;3.65;1.73;;;4.20;91.20;;;;;;5092785;28;20032;-72
2022/01/15 02:07:52;;;;;;;4.40;1.77;;;4.10;91.60;;;;;;5092281;28;20028;-73
2022/01/15 02:10:20;;;;;;;3.53;1.45;;;4.00;91.80;;;;;;5092283;28;20053;-72
2022/01/15 02:12:48;;;;;;;4.38;1.88;;;3.90;92.00;;;;;;5092331;28;20482;-72
2022/01/15 02:15:16;;;;;;;3.70;1.70;;;4.00;91.90;;;;;;5091999;28;20046;-72
2022/01/15 02:17:43;;;;;;;3.95;1.88;;;4.00;91.90;;;;;;5091215;28;20040;-72
2022/01/15 02:20:34;;;;;;;3.83;1.60;;;4.00;92.00;;;;;;5092017;28;20024;-72
2022/01/15 02:25:57;;;;;;;5.18;2.15;;;4.00;91.70;;;;;;5091410;28;20081;-72
2022/01/15 02:28:27;;;;;;;4.05;1.58;;;3.90;91.70;;;;;;5091178;28;20024;-72
2022/01/15 02:30:58;;;;;;;3.78;1.63;;;3.80;92.50;;;;;;5091337;28;20042;-72
2022/01/15 02:33:24;;;;;;;4.75;2.10;;;3.80;92.50;;;;;;5091203;28;20039;-72
2022/01/15 02:35:51;;;;;;;5.47;2.90;;;3.90;92.30;;;;;;5091799;28;20032;-72
2022/01/15 02:38:17;;;;;;;3.70;2.08;;;4.00;91.90;;;;;;5091563;28;20028;-72
2022/01/15 02:40:43;;;;;;;4.63;2.10;;;3.90;91.90;;;;;;5091619;28;20023;-72
2022/01/15 02:43:13;;;;;;;4.32;1.90;;;3.70;92.30;;;;;;5092117;28;20056;-72
2022/01/15 02:45:43;;;;;;;4.40;2.25;;;3.70;92.40;;;;;;5091266;28;20085;-72
2022/01/15 02:48:18;;;;;;;3.90;1.98;;;3.40;92.70;;;;;;5091604;28;20024;-72
2022/01/15 02:50:46;;;;;;;3.63;1.70;;;3.50;93.00;;;;;;5091215;28;20024;-72
2022/01/15 02:53:16;;;;;;;6.47;1.50;;;3.90;92.60;;;;;;5091142;28;20031;-72
2022/01/15 02:55:47;;;;;;;5.35;2.13;;;3.80;92.40;;;;;;5088022;28;20028;-72
2022/01/15 02:58:14;;;;;;;8.57;2.58;;;3.60;92.50;;;;;;5091360;28;20036;-72
2022/01/15 03:00:40;;;;;;;4.47;1.40;;;3.60;92.40;;;;;;5091070;28;20090;-72
2022/01/15 03:03:06;;;;;;;4.18;1.80;;;3.60;93.10;;;;;;5091665;28;20510;-72
2022/01/15 03:05:32;;;;;;;4.13;1.92;;;3.60;92.90;;;;;;5091161;28;20483;-72
2022/01/15 03:07:57;;;;;;;4.45;1.90;;;3.80;92.50;;;;;;5091062;28;20099;-72
2022/01/15 03:10:23;;;;;;;5.35;1.58;;;3.90;92.40;;;;;;5090537;28;20058;-72
2022/01/15 03:12:49;;;;;;;4.10;1.63;;;4.10;92.00;;;;;;5091158;28;20081;-72
2022/01/15 03:15:19;;;;;;;4.30;1.73;;;3.90;92.20;;;;;;5090942;28;20028;-72
2022/01/15 03:17:47;;;;;;;3.78;1.80;;;4.10;91.90;;;;;;5072818;28;20432;-72
2022/01/15 03:20:14;;;;;;;5.25;2.35;;;3.70;92.40;;;;;;5090527;28;20051;-72
2022/01/15 03:22:41;;;;;;;5.13;2.05;;;3.40;92.60;;;;;;5089665;28;20046;-72
2022/01/15 03:25:07;;;;;;;4.07;1.52;;;3.40;93.00;;;;;;5089830;28;20081;-72
2022/01/15 03:27:33;;;;;;;3.30;1.63;;;3.10;93.70;;;;;;5089553;28;20044;-72
2022/01/15 03:29:59;;;;;;;4.15;1.33;;;3.20;93.70;;;;;;5090840;28;20566;-72
2022/01/15 03:32:25;;;;;;;4.43;1.30;;;3.70;93.50;;;;;;5071851;28;20035;-72
2022/01/15 03:34:50;;;;;;;5.82;2.55;;;4.00;92.70;;;;;;5090404;28;20036;-72
2022/01/15 03:37:16;;;;;;;5.65;1.95;;;3.80;92.50;;;;;;5090030;28;20443;-72
2022/01/15 03:39:43;;;;;;;4.95;2.38;;;3.70;92.70;;;;;;5090259;28;20035;-72
2022/01/15 03:42:12;;;;;;;7.22;2.10;;;3.50;92.70;;;;;;5071339;28;20444;-72
2022/01/15 03:44:40;;;;;;;5.00;2.17;;;3.20;93.20;;;;;;5091055;28;20031;-72
2022/01/15 03:47:06;;;;;;;4.35;1.90;;;3.20;93.60;;;;;;5089861;28;20024;-72
2022/01/15 03:49:32;;;;;;;4.43;1.90;;;3.30;93.70;;;;;;5090474;28;20537;-72
2022/01/15 03:51:57;;;;;;;5.38;1.95;;;3.50;93.40;;;;;;5089716;28;20363;-72
2022/01/15 03:54:23;;;;;;;5.85;2.10;;;3.60;92.80;;;;;;5090446;28;20032;-72
2022/01/15 03:56:49;;;;;;;4.03;1.80;;;3.80;92.80;;;;;;5089604;28;20040;-72
2022/01/15 03:59:14;;;;;;;5.60;1.73;;;4.00;92.30;;;;;;5089929;28;20359;-72
2022/01/15 04:01:40;;;;;;;3.10;1.30;;;3.90;92.60;;;;;;5089536;28;21801;-71
2022/01/15 04:04:06;;;;;;;5.22;1.88;;;4.00;92.40;;;;;;5063982;28;20039;-71
2022/01/15 04:06:31;;;;;;;4.80;1.70;;;4.00;92.50;;;;;;5082217;28;20032;-71
2022/01/15 04:08:57;;;;;;;3.72;1.75;;;3.80;92.50;;;;;;5082648;28;20490;-71
2022/01/15 04:11:23;;;;;;;2.47;1.10;;;3.70;92.90;;;;;;5082128;28;20106;-71
2022/01/15 04:13:48;;;;;;;2.03;1.00;;;3.80;93.00;;;;;;5082134;28;20030;-71
2022/01/15 04:16:14;;;;;;;4.35;1.70;;;3.70;92.90;;;;;;5082102;28;20040;-71
2022/01/15 04:18:41;;;;;;;2.97;1.10;;;4.00;93.10;;;;;;5081704;28;20035;-71
2022/01/15 04:21:10;;;;;;;2.63;1.05;;;4.20;92.70;;;;;;5082285;28;20024;-71
2022/01/15 04:23:37;;;;;;;3.03;1.13;;;4.60;92.10;;;;;;5084273;28;20393;-71
2022/01/15 04:26:04;;;;;;;3.60;1.25;;;4.50;92.10;;;;;;5085344;28;20072;-71
2022/01/15 04:28:32;;;;;;;4.97;1.55;;;4.20;92.50;;;;;;5085316;28;20090;-71
2022/01/15 04:31:04;;;;;;;3.65;1.70;;;3.80;92.90;;;;;;5084529;28;20857;-71
2022/01/15 04:33:35;;;;;;;4.05;2.05;;;3.60;93.10;;;;;;5062765;28;20032;-71
2022/01/15 04:36:02;;;;;;;6.18;2.78;;;3.40;93.10;;;;;;5082361;28;20039;-71
2022/01/15 04:38:30;;;;;;;2.15;1.25;;;3.30;93.70;;;;;;5081437;28;20066;-71
2022/01/15 04:40:56;;;;;;;7.80;1.70;;;3.20;94.10;;;;;;5081449;28;20032;-71
2022/01/15 04:43:21;;;;;;;4.55;1.85;;;3.10;94.10;;;;;;5081604;28;20038;-71
2022/01/15 04:45:47;;;;;;;2.97;1.63;;;3.30;93.80;;;;;;5085289;28;20103;-71
2022/01/15 04:48:13;;;;;;;4.85;2.15;;;3.20;93.80;;;;;;5084034;28;20428;-71
2022/01/15 04:50:38;;;;;;;7.03;1.90;;;3.20;93.80;;;;;;5084145;28;20024;-71
2022/01/15 04:53:04;;;;;;;3.78;1.77;;;3.10;94.00;;;;;;5066214;28;20032;-71
2022/01/15 04:55:31;;;;;;;2.85;1.65;;;3.30;93.90;;;;;;5085206;28;20103;-71
2022/01/15 04:57:57;;;;;;;3.38;1.50;;;3.20;94.60;;;;;;5083678;28;20062;-71
2022/01/15 05:00:23;;;;;;;1.65;0.88;;;3.40;94.40;;;;;;5063416;28;20028;-71
2022/01/15 05:02:49;;;;;;;1.13;0.52;;;3.40;94.20;;;;;;5077548;28;20078;-71
2022/01/15 05:05:15;;;;;;;4.28;1.23;;;3.60;93.90;;;;;;5081985;28;20367;-71
2022/01/15 05:07:42;;;;;;;2.28;1.02;;;3.70;93.70;;;;;;5063462;28;20134;-71
2022/01/15 05:10:10;;;;;;;1.85;1.15;;;3.90;93.60;;;;;;5081320;28;20016;-71
2022/01/15 05:12:47;;;;;;;2.83;0.93;;;4.00;93.40;;;;;;5081260;28;20036;-71
2022/01/15 05:15:14;;;;;;;4.32;1.17;;;4.20;93.00;;;;;;5081681;28;20070;-71
2022/01/15 05:17:41;;;;;;;2.22;1.02;;;3.90;93.10;;;;;;5082267;28;20062;-71
2022/01/15 05:20:08;;;;;;;3.42;1.45;;;4.10;93.00;;;;;;5080851;28;20486;-71
2022/01/15 05:22:34;;;;;;;3.70;1.35;;;4.10;93.20;;;;;;5063093;28;20420;-71
2022/01/15 05:25:00;;;;;;;3.60;1.70;;;3.80;93.30;;;;;;5062697;28;20036;-71
2022/01/15 05:27:26;;;;;;;3.28;1.17;;;3.60;93.80;;;;;;5081505;28;20134;-71
2022/01/15 05:29:52;;;;;;;3.05;1.30;;;3.60;93.70;;;;;;5064037;28;20094;-71
2022/01/15 05:32:19;;;;;;;3.00;1.50;;;3.60;93.80;;;;;;5080577;28;20094;-71
2022/01/15 05:34:47;;;;;;;2.47;1.20;;;3.30;94.20;;;;;;5081865;28;20608;-71
2022/01/15 05:37:13;;;;;;;2.83;1.10;;;3.40;94.40;;;;;;5081077;28;20163;-71
2022/01/15 05:39:39;;;;;;;3.20;1.33;;;3.80;93.90;;;;;;5063166;28;20544;-71
2022/01/15 05:42:05;;;;;;;4.50;1.98;;;3.90;93.30;;;;;;5079639;28;20032;-71
2022/01/15 05:44:31;;;;;;;4.57;2.00;;;3.80;93.30;;;;;;5081804;28;20032;-71
2022/01/15 05:46:56;;;;;;;4.72;1.65;;;3.70;93.50;;;;;;5082043;28;20048;-71
2022/01/15 05:49:22;;;;;;;3.83;1.20;;;3.80;93.70;;;;;;5081679;28;20115;-71
2022/01/15 05:51:48;;;;;;;2.95;1.17;;;4.30;93.10;;;;;;5085006;28;20058;-71
2022/01/15 05:54:14;;;;;;;3.05;1.10;;;4.40;92.90;;;;;;5084127;28;20028;-71
2022/01/15 05:56:40;;;;;;;6.10;2.13;;;4.60;92.60;;;;;;5085028;28;20052;-71
2022/01/15 05:59:07;;;;;;;3.63;1.60;;;4.10;92.70;;;;;;5066693;28;20118;-71
2022/01/15 06:01:33;;;;;;;4.38;1.58;;;3.70;93.30;;;;;;5082982;28;20044;-71
2022/01/15 06:03:59;;;;;;;2.10;0.90;;;3.70;93.70;;;;;;5083857;28;20110;-71
2022/01/15 06:06:25;;;;;;;2.45;1.02;;;3.80;93.80;;;;;;5084555;28;20031;-71
2022/01/15 06:08:50;;;;;;;2.10;0.90;;;3.90;93.60;;;;;;5085083;28;20028;-71
2022/01/15 06:11:19;;;;;;;3.03;1.30;;;4.50;92.90;;;;;;5084208;28;20024;-71
2022/01/15 06:13:45;;;;;;;6.50;1.42;;;4.70;92.50;;;;;;5084042;28;20051;-71
2022/01/15 06:16:11;;;;;;;3.58;2.00;;;4.30;92.70;;;;;;5065461;28;20048;-71
2022/01/15 06:18:37;;;;;;;3.22;1.30;;;4.00;93.00;;;;;;5084724;28;20385;-71
2022/01/15 06:21:03;;;;;;;3.05;1.17;;;4.10;93.10;;;;;;5066013;28;20470;-71
2022/01/15 06:23:29;;;;;;;2.67;1.20;;;4.00;93.10;;;;;;5065066;28;20046;-71
2022/01/15 06:25:55;;;;;;;3.85;1.30;;;4.00;93.30;;;;;;5065972;28;20020;-71
2022/01/15 06:28:21;;;;;;;3.45;1.38;;;3.80;93.50;;;;;;5084110;28;20031;-71
2022/01/15 06:30:47;;;;;;;4.95;1.25;;;3.70;93.80;;;;;;5084061;28;20107;-71
2022/01/15 06:33:13;;;;;;;2.35;0.63;;;3.60;94.10;;;;;;5082444;28;20634;-71
2022/01/15 06:35:39;;;;;;;2.70;1.00;;;3.90;93.80;;;;;;5066243;28;20107;-71
2022/01/15 06:38:04;;;;;;;3.20;1.17;;;4.10;93.40;;;;;;5084619;28;20070;-71
2022/01/15 06:40:31;;;;;;;1.38;0.80;;;4.40;92.70;;;;;;5083432;28;20024;-71
2022/01/15 06:42:59;;;;;;;2.90;1.20;;;4.30;92.90;;;;;;5083734;28;20023;-71
2022/01/15 06:45:29;;;;;;;1.23;0.77;;;4.10;93.10;;;;;;5064950;28;20027;-71
2022/01/15 06:47:54;;;;;;;2.42;0.85;;;3.90;93.40;;;;;;5084707;28;20081;-71
2022/01/15 06:50:23;;;;;;;1.38;0.60;;;3.70;93.90;;;;;;5082985;28;20040;-71
2022/01/15 06:52:49;;;;;;;2.05;0.88;;;3.50;94.60;;;;;;5083833;28;20062;-71
2022/01/15 06:55:14;;;;;;;3.15;1.52;;;4.10;93.70;;;;;;5081032;28;20032;-71
2022/01/15 06:57:40;;;;;;;2.70;1.10;;;4.40;93.10;;;;;;5083807;28;20404;-71
2022/01/15 07:00:08;;;;;;;3.30;1.42;;;4.00;93.40;;;;;;5064674;28;20035;-71
2022/01/15 07:02:34;;;;;;;4.05;1.98;;;3.30;94.30;;;;;;5082781;28;20119;-71
2022/01/15 07:05:00;;;;;;;3.85;2.10;;;3.10;94.70;;;;;;5081668;28;20050;-71
2022/01/15 07:07:26;;;;;;;4.45;1.67;;;3.10;95.00;;;;;;5083202;28;20114;-71
2022/01/15 07:09:51;;;;;;;4.90;1.98;;;3.10;95.40;;;;;;5066703;28;20095;-71
2022/01/15 07:12:17;;;;;;;2.78;1.30;;;3.20;95.00;;;;;;5086490;28;20070;-71
2022/01/15 07:14:43;;;;;;;3.80;1.58;;;3.30;94.90;;;;;;5064339;28;20773;-71
2022/01/15 07:17:10;;;;;;;3.22;1.63;;;3.20;95.10;;;;;;5085829;28;20048;-71
2022/01/15 07:19:36;;;;;;;2.90;1.30;;;3.20;94.90;;;;;;5086860;28;20898;-71
2022/01/15 07:22:03;;;;;;;5.40;2.25;;;3.10;95.10;;;;;;5085983;28;20058;-71
2022/01/15 07:24:29;;;;;;;5.45;2.08;;;3.20;94.90;;;;;;5084856;28;20572;-71
2022/01/15 07:26:54;;;;;;;3.20;1.33;;;3.30;94.60;;;;;;5085325;28;20131;-71
2022/01/15 07:29:22;;;;;;;5.15;2.00;;;3.30;94.80;;;;;;5086133;28;20024;-71
2022/01/15 07:31:48;;;;;;;4.55;2.45;;;3.20;95.10;;;;;;5086271;28;20386;-71
2022/01/15 07:34:15;;;;;;;6.60;1.70;;;3.20;95.00;;;;;;5085642;28;20119;-71
2022/01/15 07:36:41;;;;;;;3.72;1.67;;;3.40;94.80;;;;;;5084592;28;20134;-71
2022/01/15 07:39:08;;;;;;;5.07;1.85;;;3.60;94.30;;;;;;5086115;28;20090;-71
2022/01/15 07:41:35;;;;;;;4.43;1.67;;;3.50;94.50;;;;;;5085486;28;20475;-71
2022/01/15 07:44:00;;;;;;;2.80;1.23;;;3.70;94.50;;;;;;5086688;28;20055;-71
2022/01/15 07:46:27;;;;;;;2.25;0.95;;;3.90;94.10;;;;;;5085294;28;20062;-71
2022/01/15 07:48:52;;;;;;;1.23;0.52;;;4.00;94.10;;;;;;5085952;28;20178;-71
2022/01/15 07:51:18;;;;;;;1.90;0.90;;;4.00;94.20;;;;;;5083027;28;20712;-71
2022/01/15 07:53:45;;;;;;;2.22;0.85;;;4.10;94.00;;;;;;5080237;28;20032;-71
2022/01/15 07:56:11;;;;;;;4.65;2.47;;;4.00;94.00;;;;;;5087690;28;20032;-72
2022/01/15 07:58:37;;;;;;;4.82;3.15;;;3.70;94.10;;;;;;5086474;28;20036;-71
2022/01/15 08:01:03;;;;;;;6.35;3.67;;;3.40;94.50;;;;;;5082670;28;20500;-73
2022/01/15 08:03:28;;;;;;;3.47;1.90;;;3.20;94.90;;;;;;5082369;28;20062;-72
2022/01/15 08:05:54;;;;;;;4.68;1.70;;;2.80;96.00;;;;;;5082825;28;20040;-72
2022/01/15 08:08:20;;;;;;;2.92;1.20;;;2.90;96.40;;;;;;5081604;28;20040;-72
2022/01/15 08:10:45;;;;;;;2.13;0.95;;;3.00;96.60;;;;;;5082252;28;20409;-72
2022/01/15 08:13:11;;;;;;;2.95;1.20;;;3.10;96.30;;;;;;5081684;28;20024;-72
2022/01/15 08:15:37;;;;;;;3.97;1.25;;;3.40;95.60;;;;;;5081579;28;20101;-72
2022/01/15 08:18:03;;;;;;;3.05;1.42;;;3.40;95.40;;;;;;5081826;28;20040;-72
2022/01/15 08:20:30;;;;;;;3.17;1.58;;;3.50;95.70;;;;;;5081285;28;20064;-72
2022/01/15 08:22:56;;;;;;;5.53;1.52;;;3.80;94.90;;;;;;5082297;28;20028;-72
2022/01/15 08:25:24;;;;;;;3.42;1.65;;;3.80;94.70;;;;;;5081853;28;20042;-72
2022/01/15 08:27:52;;;;;;;3.78;1.67;;;3.80;94.90;;;;;;5081604;28;20052;-72
2022/01/15 08:30:18;;;;;;;4.75;1.65;;;3.90;94.70;;;;;;5063489;28;20448;-72
2022/01/15 08:32:44;;;;;;;3.42;1.55;;;3.90;94.60;;;;;;5063099;28;20030;-72
2022/01/15 08:35:10;;;;;;;4.75;1.73;;;3.80;94.80;;;;;;5081601;28;20028;-72
2022/01/15 08:37:37;;;;;;;3.50;1.40;;;3.80;94.90;;;;;;5081746;28;20040;-72
2022/01/15 08:40:04;;;;;;;2.90;1.58;;;3.80;94.90;;;;;;5082190;28;20519;-72
2022/01/15 08:42:30;;;;;;;7.60;1.60;;;3.90;94.60;;;;;;5082267;28;20035;-72
2022/01/15 08:44:56;;;;;;;4.35;1.80;;;3.80;95.20;;;;;;5080352;28;20028;-72
2022/01/15 08:47:22;;;;;;;3.00;1.40;;;4.00;94.50;;;;;;5081829;28;20028;-72
2022/01/15 08:49:48;;;;;;;2.47;1.33;;;3.90;94.70;;;;;;5081449;28;20080;-72
2022/01/15 08:52:14;;;;;;;3.25;1.10;;;3.90;94.70;;;;;;5082662;28;20039;-72
2022/01/15 08:54:39;;;;;;;4.78;1.48;;;3.90;94.80;;;;;;5081885;28;20024;-72
2022/01/15 08:57:05;;;;;;;4.68;1.90;;;4.20;94.60;;;;;;5081014;28;20079;-72
2022/01/15 08:59:31;;;;;;;2.83;1.48;;;4.30;94.50;;;;;;5084864;28;20032;-72
2022/01/15 09:01:59;;;;;;;5.00;1.70;;;4.30;94.20;;;;;;5084658;28;20089;-73
2022/01/15 09:04:25;;;;;;;4.22;1.70;;;4.20;94.30;;;;;;5084280;28;20122;-72
2022/01/15 09:06:51;;;;;;;4.47;2.15;;;4.40;94.10;;;;;;5085109;28;20032;-73
2022/01/15 09:09:29;;;;;;;3.92;1.98;;;4.40;94.00;;;;;;5085514;28;20062;-73
2022/01/15 09:11:55;;;;;;;3.80;1.60;;;4.60;93.80;;;;;;5065230;28;20028;-73
2022/01/15 09:14:21;;;;;;;7.22;1.95;;;4.60;93.50;;;;;;5084709;28;20028;-73
2022/01/15 09:16:46;;;;;;;4.20;1.73;;;4.50;93.80;;;;;;5064977;28;20032;-73
2022/01/15 09:19:12;;;;;;;4.95;1.70;;;4.30;94.00;;;;;;5080704;28;20111;-73
2022/01/15 09:21:38;;;;;;;3.80;1.60;;;4.30;94.00;;;;;;5076483;28;20032;-73
2022/01/15 09:24:04;;;;;;;3.50;1.50;;;4.40;94.10;;;;;;5079199;28;20512;-73
2022/01/15 09:31:55;;;;;;;3.67;1.90;;;4.20;94.40;;;;;;5086777;28;20039;-72
2022/01/15 09:34:21;;;;;;;3.03;1.40;;;4.20;94.50;;;;;;5088934;28;20024;-73
2022/01/15 09:36:47;;;;;;;4.15;1.88;;;4.30;94.40;;;;;;5086691;28;21165;-72
2022/01/15 09:39:13;;;;;;;2.65;1.30;;;4.20;94.50;;;;;;5083541;28;20495;-74
2022/01/15 09:41:43;;;;;;;3.88;1.60;;;4.30;94.50;;;;;;5087727;28;20474;-71
2022/01/15 09:44:09;;;;;;;4.22;1.67;;;4.50;94.00;;;;;;5085666;28;20081;-74
2022/01/15 09:46:36;;;;;;;3.58;1.60;;;4.40;94.00;;;;;;5083595;28;20707;-73
2022/01/15 09:49:02;;;;;;;2.60;1.27;;;4.30;94.20;;;;;;5084044;28;20032;-73
2022/01/15 09:51:30;;;;;;;5.40;3.15;;;4.30;94.30;;;;;;5086220;28;20036;-75
2022/01/15 09:53:58;;;;;;;5.25;2.30;;;4.40;94.00;;;;;;5088112;28;20028;-74
2022/01/15 09:56:23;;;;;;;5.72;2.95;;;4.40;94.20;;;;;;5081954;28;20044;-73
2022/01/15 09:58:49;;;;;;;4.78;2.28;;;4.30;94.20;;;;;;5085707;28;20059;-75
2022/01/15 10:01:15;;;;;;;4.97;2.20;;;4.30;94.10;;;;;;5085700;28;20468;-73
2022/01/15 10:03:40;;;;;;;5.05;2.10;;;4.30;94.50;;;;;;5085932;28;20110;-74
2022/01/15 10:06:06;;;;;;;5.25;2.13;;;4.30;94.40;;;;;;5083918;28;20027;-74
2022/01/15 10:08:32;;;;;;;4.40;1.90;;;4.30;94.30;;;;;;5085996;28;20474;-73
2022/01/15 10:11:01;;;;;;;6.75;2.80;;;4.40;94.20;;;;;;5087743;28;20032;-74
2022/01/15 10:13:30;;;;;;;4.95;2.17;;;4.40;94.30;;;;;;5086526;28;20016;-74
2022/01/15 10:15:59;;;;;;;3.33;1.70;;;4.50;94.20;;;;;;5085119;28;20024;-74
2022/01/15 10:18:30;;;;;;;6.05;1.83;;;4.70;93.80;;;;;;5088348;28;20031;-75
2022/01/15 10:21:14;;;;;;;4.20;1.60;;;4.70;93.80;;;;;;5085704;28;20023;-76
2022/01/15 10:23:50;;;;;;;6.88;1.95;;;4.70;93.80;;;;;;5081917;28;20089;-73
2022/01/15 10:26:22;;;;;;;3.38;1.55;;;4.70;93.70;;;;;;5083209;28;20059;-74
2022/01/15 10:28:59;;;;;;;3.28;1.55;;;4.90;93.50;;;;;;5082895;28;20102;-74
2022/01/15 10:31:30;;;;;;;1.75;1.00;;;5.00;93.10;;;;;;5086280;28;20105;-73
2022/01/15 10:34:00;;;;;;;4.53;1.35;;;5.00;93.20;;;;;;5088015;28;20108;-75
2022/01/15 10:36:31;;;;;;;3.15;1.35;;;5.10;92.90;;;;;;5081935;28;20040;-75
2022/01/15 10:39:16;;;;;;;3.60;1.52;;;5.20;92.80;;;;;;5067595;28;20032;-73
2022/01/15 10:41:42;;;;;;;;;;;5.20;92.80;;;;;;5086269;28;20099;-73
2022/01/15 10:44:37;;;;;;;3.33;1.45;;;5.10;92.90;;;;;;5085724;28;19987;-74
2022/01/15 10:47:15;;;;;;;3.05;1.38;;;5.20;93.00;;;;;;5066372;28;20044;-74
2022/01/15 10:49:42;;;;;;;3.70;1.60;;;5.30;93.00;;;;;;5083225;28;20067;-75
2022/01/15 10:52:17;;;;;;;4.70;1.88;;;5.60;92.70;;;;;;5079642;28;20262;-73
2022/01/15 10:54:55;;;;;;;;;;;5.60;93.00;;;;;;5074971;28;20044;-73
2022/01/15 10:57:28;;;;;;;4.07;2.22;;;5.60;92.90;;;;;;5085405;28;20430;-75
2022/01/15 11:00:19;;;;;;;6.70;3.00;;;5.80;93.10;;;;;;5072185;28;20382;-75
2022/01/15 11:02:51;;;;;;;5.18;3.30;;;5.90;93.10;;;;;;5070986;28;20028;-75
2022/01/15 11:05:41;;;;;;;6.28;3.30;;;5.90;93.30;;;;;;5084063;28;20032;-75
2022/01/15 11:08:28;;;;;;;4.93;2.60;;;6.00;93.00;;;;;;5072860;28;20099;-75
2022/01/15 11:11:05;;;;;;;7.28;3.10;;;6.00;93.00;;;;;;5074826;28;20552;-77
2022/01/15 11:13:32;;;;;;;4.03;2.08;;;6.10;92.80;;;;;;5078151;28;20039;-76
2022/01/15 11:16:05;;;;;;;4.00;1.85;;;6.30;92.70;;;;;;5071742;28;20051;-76
2022/01/15 11:18:35;;;;;;;5.05;2.47;;;6.40;92.20;;;;;;5074270;28;20016;-73
2022/01/15 11:21:06;;;;;;;5.60;1.98;;;6.60;91.90;;;;;;5080101;28;20448;-76
2022/01/15 11:23:34;;;;;;;4.30;2.28;;;6.60;92.10;;;;;;5077978;28;20039;-72
2022/01/15 11:26:02;;;;;;;4.40;2.15;;;6.60;92.20;;;;;;5081794;28;20078;-73
2022/01/15 11:28:30;;;;;;;6.05;2.22;;;6.60;91.90;;;;;;5075103;28;20036;-74
2022/01/15 11:31:03;;;;;;;4.85;2.13;;;6.70;91.60;;;;;;5081865;28;20032;-73
2022/01/15 11:33:34;;;;;;;4.68;2.42;;;6.90;91.50;;;;;;5079615;28;20047;-74
2022/01/15 11:36:01;;;;;;;4.80;2.20;;;7.10;92.20;;;;;;5082952;28;20597;-73
2022/01/15 11:38:52;;;;;;;5.97;2.00;;;7.50;93.50;;;;;;5082850;28;20593;-73
2022/01/15 11:41:27;;;;;;;4.53;2.42;;;7.50;91.30;;;;;;5076369;28;20040;-73
2022/01/15 11:43:54;;;;;;;7.57;4.80;;;7.40;91.30;;;;;;5086509;28;20055;-73
2022/01/15 11:46:31;;;;;;;6.60;3.53;;;7.70;91.10;;;;;;5086084;28;20069;-73
2022/01/15 11:49:25;;;;;;;6.63;3.90;;;8.00;90.80;;;;;;5085070;28;20043;-73
2022/01/15 11:51:54;;;;;;;5.88;3.53;;;8.30;90.80;;;;;;5085470;28;20069;-73
2022/01/15 11:54:20;;;;;;;5.60;2.63;;;8.20;90.90;;;;;;5084718;28;20032;-73
2022/01/15 11:56:49;;;;;;;6.95;3.35;;;8.20;90.40;;;;;;5085113;28;20047;-73
2022/01/15 11:59:24;;;;;;;5.75;4.05;;;8.30;90.50;;;;;;5085318;28;20035;-73
2022/01/15 12:01:50;;;;;;;;;;;8.40;90.30;;;;;;5083314;28;20028;-73
2022/01/15 12:04:21;;;;;;;7.88;3.75;;;8.40;90.40;;;;;;5079519;28;19908;-73
2022/01/15 12:07:05;;;;;;;8.25;3.33;;;8.50;90.30;;;;;;5081367;28;20043;-74
2022/01/15 12:09:41;;;;;;;5.55;2.63;;;8.50;89.20;;;;;;5084405;28;20417;-73
2022/01/15 12:12:19;;;;;;;7.45;3.95;;;8.50;89.00;;;;;;5079814;28;20073;-74
2022/01/15 12:14:58;;;;;;;7.30;4.47;;;8.70;88.90;;;;;;5084749;28;20031;-73
2022/01/15 12:17:36;;;;;;;7.88;3.83;;;8.80;88.60;;;;;;5085468;28;20089;-74
2022/01/15 12:20:17;;;;;;;7.63;3.40;;;8.70;88.80;;;;;;5084729;28;20032;-74
2022/01/15 12:22:53;;;;;;;5.55;2.95;;;8.80;89.10;;;;;;5083730;28;20204;-73
2022/01/15 12:25:18;;;;;;;7.68;5.38;;;8.90;88.60;;;;;;5082894;28;20040;-73
2022/01/15 12:27:47;;;;;;;11.82;6.35;;;9.00;88.00;;;;;;5084931;28;20502;-73
2022/01/15 12:30:15;;;;;;;14.18;8.43;;;9.10;87.30;;;;;;5085008;28;20061;-74
2022/01/15 12:32:43;;;;;;;9.30;4.90;;;9.10;87.80;;;;;;5084127;28;20035;-73
2022/01/15 12:35:20;;;;;;;5.97;3.30;;;9.10;86.90;;;;;;5081813;28;20089;-74
2022/01/15 12:38:10;;;;;;;7.85;5.45;;;9.00;86.80;;;;;;5085078;28;20097;-74
2022/01/15 12:40:48;;;;;;;6.85;3.83;;;9.20;87.90;;;;;;5085837;28;20028;-74
2022/01/15 12:43:26;;;;;;;6.43;3.38;;;9.10;87.60;;;;;;5083061;28;20536;-74
2022/01/15 12:46:00;;;;;;;6.45;3.42;;;9.10;87.50;;;;;;5085760;28;20039;-73
2022/01/15 12:48:28;;;;;;;6.93;3.20;;;9.10;87.20;;;;;;5085739;28;20036;-74
2022/01/15 12:50:57;;;;;;;8.80;5.32;;;9.00;86.80;;;;;;5082588;28;20897;-73
2022/01/15 12:53:25;;;;;;;9.57;5.10;;;9.10;87.90;;;;;;5084786;28;20119;-74
2022/01/15 12:55:52;;;;;;;9.13;7.95;;;9.20;87.40;;;;;;5083824;28;20705;-73
2022/01/15 12:58:20;;;;;;;6.65;4.65;;;9.10;87.60;;;;;;5084082;28;20536;-74
2022/01/15 13:00:46;;;;;;;5.25;3.05;;;9.40;88.30;;;;;;5085921;28;20070;-74
2022/01/15 13:03:15;;;;;;;5.68;2.95;;;9.40;87.30;;;;;;5088281;28;20107;-73
2022/01/15 13:05:44;;;;;;;6.00;2.67;;;9.40;87.30;;;;;;5080934;28;20036;-74
2022/01/15 13:08:13;;;;;;;11.60;8.65;;;9.30;87.20;;;;;;5085897;28;20040;-74
2022/01/15 13:10:49;;;;;;;5.47;3.13;;;9.60;87.30;;;;;;5087712;28;20165;-74
2022/01/15 13:13:18;;;;;;;6.13;3.13;;;9.40;87.30;;;;;;5088210;28;20081;-73
2022/01/15 13:15:44;;;;;;;5.90;2.88;;;9.50;86.90;;;;;;5088888;28;20040;-74
2022/01/15 13:18:16;;;;;;;6.28;2.55;;;9.50;86.90;;;;;;5089423;28;20429;-74
2022/01/15 13:20:42;;;;;;;6.38;3.50;;;9.60;86.10;;;;;;5087243;28;20047;-74
2022/01/15 13:23:08;;;;;;;4.90;2.85;;;9.60;86.60;;;;;;5088366;28;20027;-74
2022/01/15 13:25:35;;;;;;;5.28;2.42;;;9.50;86.50;;;;;;5088989;28;20040;-74